Terminal Aerodrome Forecast
Issued by NWS Tampa Bay Area, FL

Home | Current Version | Previous Version | Text Only | Print | Product List | Glossary On
Versions: 1 2 3 4 5 6 7 8 9 10 11 12 13
000
FTUS42 KTBW 211722
TAFFMY
TAF
KFMY 211722Z 2118/2218 08012G18KT P6SM FEW030 BKN060
     FM220000 09009KT P6SM SCT035 BKN150
     FM221400 12010G15KT P6SM SCT025 BKN200=

USA.gov is the U.S. government's official web portal to all federal, state and local government web resources and services.